Time;durP1;ratioP1;P1;durP2;ratioP2;P2;SDS_P1;SDS_P2;PMS_P1;PMS_P2;Temp;Humidity;BMP_temperature;BMP_pressure;BME280_temperature;BME280_humidity;BME280_pressure;Samples;Min_cycle;Max_cycle;Signal;HPM_P1;HPM_P2
2021/01/08 00:00:52;;;;;;;64.87;27.13;;;0.40;99.90;;;;;;5291132;28;20191;-74
2021/01/08 00:03:23;;;;;;;66.17;27.90;;;0.40;99.90;;;;;;5290296;28;20199;-75
2021/01/08 00:05:55;;;;;;;62.27;23.00;;;0.40;99.90;;;;;;5290219;28;20637;-75
2021/01/08 00:08:26;;;;;;;61.77;22.67;;;0.40;99.90;;;;;;5290507;28;20192;-75
2021/01/08 00:10:57;;;;;;;58.30;21.00;;;0.40;99.90;;;;;;5272432;28;20196;-75
2021/01/08 00:13:29;;;;;;;48.90;19.13;;;0.40;99.90;;;;;;5291367;28;20184;-74
2021/01/08 00:16:00;;;;;;;44.60;18.23;;;0.40;99.90;;;;;;5290820;28;20219;-73
2021/01/08 00:18:32;;;;;;;42.77;18.70;;;0.40;99.90;;;;;;5272260;28;20202;-74
2021/01/08 00:21:03;;;;;;;37.97;17.77;;;0.40;99.90;;;;;;5291147;28;20302;-74
2021/01/08 00:23:35;;;;;;;38.87;16.80;;;0.40;99.90;;;;;;5291433;28;20199;-73
2021/01/08 00:26:06;;;;;;;40.70;16.57;;;0.40;99.90;;;;;;5291247;28;20667;-74
2021/01/08 00:28:37;;;;;;;36.53;15.93;;;0.40;99.90;;;;;;5290884;28;20214;-73
2021/01/08 00:31:09;;;;;;;39.67;16.00;;;0.40;99.90;;;;;;5291133;28;20212;-74
2021/01/08 00:33:40;;;;;;;36.33;15.60;;;0.40;99.90;;;;;;5291341;28;20194;-73
2021/01/08 00:36:13;;;;;;;38.23;15.73;;;0.40;99.90;;;;;;5290685;28;20215;-74
2021/01/08 00:38:44;;;;;;;40.17;15.47;;;0.40;99.90;;;;;;5290276;28;20203;-75
2021/01/08 00:41:15;;;;;;;37.87;16.57;;;0.40;99.90;;;;;;5290065;28;20192;-74
2021/01/08 00:43:47;;;;;;;34.27;16.50;;;0.40;99.90;;;;;;5294119;28;20540;-75
2021/01/08 00:46:18;;;;;;;36.87;17.37;;;0.40;99.90;;;;;;5292901;28;20244;-73
2021/01/08 00:48:50;;;;;;;39.47;18.07;;;0.40;99.90;;;;;;5292295;28;20340;-74
2021/01/08 00:51:23;;;;;;;37.20;16.43;;;0.40;99.90;;;;;;5293674;28;20249;-72
2021/01/08 00:53:54;;;;;;;35.40;16.80;;;0.40;99.90;;;;;;5293842;28;20184;-73
2021/01/08 00:56:26;;;;;;;37.33;18.00;;;0.40;99.90;;;;;;5293629;28;20218;-74
2021/01/08 00:58:58;;;;;;;35.97;16.00;;;0.40;99.90;;;;;;5293386;28;20183;-73
2021/01/08 01:01:29;;;;;;;36.40;16.63;;;0.40;99.90;;;;;;5293308;28;20192;-73
2021/01/08 01:04:01;;;;;;;37.10;17.30;;;0.40;99.90;;;;;;5294275;28;20192;-74
2021/01/08 01:06:34;;;;;;;39.17;16.43;;;0.40;99.90;;;;;;5294993;28;20204;-73
2021/01/08 01:09:05;;;;;;;39.50;17.93;;;0.40;99.90;;;;;;5295827;28;20642;-73
2021/01/08 01:11:38;;;;;;;37.30;16.67;;;0.40;99.90;;;;;;5294878;28;20188;-73
2021/01/08 01:14:10;;;;;;;35.53;16.80;;;0.40;99.90;;;;;;5294866;28;20192;-72
2021/01/08 01:16:41;;;;;;;35.83;16.33;;;0.40;99.90;;;;;;5294512;28;20222;-73
2021/01/08 01:19:13;;;;;;;33.50;15.63;;;0.40;99.90;;;;;;5294857;28;20196;-72
2021/01/08 01:21:44;;;;;;;35.53;16.27;;;0.40;99.90;;;;;;5296918;28;20618;-74
2021/01/08 01:28:12;;;;;;;31.97;14.63;;;0.40;99.90;;;;;;5294051;28;20173;-75
2021/01/08 01:30:43;;;;;;;32.63;14.40;;;0.40;99.90;;;;;;5293737;28;20553;-76
2021/01/08 01:33:15;;;;;;;30.50;14.87;;;0.40;99.90;;;;;;5292847;28;20201;-75
2021/01/08 01:35:47;;;;;;;32.57;14.87;;;0.40;99.90;;;;;;5292785;28;20603;-75
2021/01/08 01:38:19;;;;;;;33.23;15.07;;;0.40;99.90;;;;;;5275111;28;20537;-75
2021/01/08 01:44:46;;;;;;;31.07;14.80;;;0.40;99.90;;;;;;5292523;28;20249;-75
2021/01/08 01:47:17;;;;;;;30.10;15.00;;;0.50;99.90;;;;;;5292752;28;20217;-75
2021/01/08 01:49:49;;;;;;;29.50;13.77;;;0.50;99.90;;;;;;5292304;28;20264;-75
2021/01/08 01:52:21;;;;;;;31.00;14.60;;;0.40;99.90;;;;;;5292430;28;20195;-73
2021/01/08 01:54:52;;;;;;;32.10;15.13;;;0.50;99.90;;;;;;5292423;28;20191;-73
2021/01/08 01:57:24;;;;;;;32.23;14.87;;;0.50;99.90;;;;;;5274180;28;20223;-73
2021/01/08 01:59:56;;;;;;;27.53;12.97;;;0.50;99.90;;;;;;5274024;28;20197;-74
2021/01/08 02:02:33;;;;;;;29.53;14.27;;;0.50;99.90;;;;;;5291878;28;20549;-75
2021/01/08 02:05:08;;;;;;;28.93;13.60;;;0.50;99.90;;;;;;5292386;28;20211;-75
2021/01/08 02:07:54;;;;;;;32.93;14.60;;;0.50;99.90;;;;;;5292119;28;20201;-74
2021/01/08 02:10:29;;;;;;;29.10;14.77;;;0.50;99.90;;;;;;5292147;28;20191;-74
2021/01/08 02:13:01;;;;;;;27.50;13.83;;;0.50;99.90;;;;;;5292316;28;20194;-74
2021/01/08 02:15:33;;;;;;;31.23;14.50;;;0.50;99.90;;;;;;5292136;28;20191;-73
2021/01/08 02:18:05;;;;;;;28.77;13.53;;;0.50;99.90;;;;;;5292119;28;20192;-73
2021/01/08 02:20:37;;;;;;;28.60;13.70;;;0.50;99.90;;;;;;5292107;28;20190;-74
2021/01/08 02:23:21;;;;;;;28.77;14.00;;;0.50;99.90;;;;;;5291665;28;20199;-74
2021/01/08 02:25:54;;;;;;;32.50;14.57;;;0.50;99.90;;;;;;5291549;28;20187;-74
2021/01/08 02:28:26;;;;;;;32.87;15.60;;;0.50;99.90;;;;;;5292000;28;20660;-73
2021/01/08 02:30:57;;;;;;;30.10;14.20;;;0.50;99.90;;;;;;5291786;28;20192;-73
2021/01/08 02:33:29;;;;;;;39.03;15.90;;;0.50;99.90;;;;;;5291329;28;20196;-73
2021/01/08 02:36:02;;;;;;;35.20;15.37;;;0.50;99.90;;;;;;5291759;28;20242;-74
2021/01/08 02:38:34;;;;;;;32.83;15.10;;;0.50;99.90;;;;;;5291775;28;20265;-74
2021/01/08 02:41:07;;;;;;;30.27;13.73;;;0.50;99.90;;;;;;5291297;28;20273;-74
2021/01/08 02:43:39;;;;;;;33.70;14.37;;;0.50;99.90;;;;;;5291449;28;20190;-74
2021/01/08 02:46:11;;;;;;;29.47;14.97;;;0.50;99.90;;;;;;5291355;28;20195;-72
2021/01/08 02:48:42;;;;;;;29.80;13.90;;;0.50;99.90;;;;;;5273055;28;20235;-73
2021/01/08 02:51:14;;;;;;;28.70;14.43;;;0.50;99.90;;;;;;5291195;28;20192;-74
2021/01/08 02:53:47;;;;;;;30.03;14.80;;;0.50;99.90;;;;;;5291346;28;20560;-75
2021/01/08 02:56:24;;;;;;;29.17;13.90;;;0.50;99.90;;;;;;5290836;28;20215;-74
2021/01/08 02:58:56;;;;;;;32.43;14.27;;;0.50;99.90;;;;;;5291342;28;20547;-74
2021/01/08 03:01:28;;;;;;;31.00;14.80;;;0.50;99.90;;;;;;5273138;28;20539;-74
2021/01/08 03:04:00;;;;;;;28.27;14.10;;;0.40;99.90;;;;;;5290747;28;20279;-74
2021/01/08 03:06:33;;;;;;;29.53;14.77;;;0.40;99.90;;;;;;5290790;28;20195;-73
2021/01/08 03:09:04;;;;;;;29.50;14.90;;;0.50;99.90;;;;;;5291001;28;20188;-74
2021/01/08 03:11:36;;;;;;;31.43;13.87;;;0.40;99.90;;;;;;5290510;28;20192;-74
2021/01/08 03:14:07;;;;;;;30.97;14.47;;;0.40;99.90;;;;;;5290678;28;20557;-74
2021/01/08 03:16:38;;;;;;;28.77;14.30;;;0.40;99.90;;;;;;5291569;28;20223;-73
2021/01/08 03:19:10;;;;;;;30.73;14.07;;;0.40;99.90;;;;;;5290787;28;20293;-73
2021/01/08 03:21:43;;;;;;;29.50;14.07;;;0.40;99.90;;;;;;5291082;28;20642;-73
2021/01/08 03:24:15;;;;;;;27.17;14.53;;;0.40;99.90;;;;;;5290813;28;20552;-73
2021/01/08 03:26:46;;;;;;;30.43;14.47;;;0.40;99.90;;;;;;5290560;28;20196;-73
2021/01/08 03:29:17;;;;;;;31.17;15.10;;;0.40;99.90;;;;;;5290697;28;20680;-73
2021/01/08 03:31:49;;;;;;;28.57;13.47;;;0.40;99.90;;;;;;5290234;28;20203;-74
2021/01/08 03:34:20;;;;;;;27.97;13.20;;;0.40;99.90;;;;;;5290372;28;20191;-73
2021/01/08 03:36:52;;;;;;;26.00;12.50;;;0.40;99.90;;;;;;5290452;28;20238;-73
2021/01/08 03:39:23;;;;;;;26.47;12.70;;;0.40;99.90;;;;;;5290582;28;20195;-73
2021/01/08 03:41:55;;;;;;;25.17;12.47;;;0.40;99.90;;;;;;5290230;28;20295;-72
2021/01/08 03:44:26;;;;;;;31.60;13.80;;;0.50;99.90;;;;;;5290169;28;20192;-74
2021/01/08 03:46:58;;;;;;;29.63;14.10;;;0.40;99.90;;;;;;5290058;28;20195;-74
2021/01/08 03:49:29;;;;;;;25.83;12.60;;;0.50;99.90;;;;;;5290133;28;20605;-74
2021/01/08 03:52:01;;;;;;;26.57;13.07;;;0.50;99.90;;;;;;5290111;28;20241;-72
2021/01/08 03:54:32;;;;;;;30.60;13.17;;;0.50;99.90;;;;;;5290475;28;20199;-75
2021/01/08 03:57:04;;;;;;;29.50;14.30;;;0.50;99.90;;;;;;5290209;28;20219;-73
2021/01/08 03:59:35;;;;;;;29.93;13.50;;;0.40;99.90;;;;;;5291053;28;20551;-73
2021/01/08 04:02:10;;;;;;;26.60;12.67;;;0.50;99.90;;;;;;5273670;28;20248;-73
2021/01/08 04:04:41;;;;;;;27.67;13.63;;;0.50;99.90;;;;;;5290882;28;20192;-73
2021/01/08 04:07:13;;;;;;;27.00;13.40;;;0.50;99.90;;;;;;5292136;28;20638;-73
2021/01/08 04:13:40;;;;;;;26.80;13.93;;;0.50;99.90;;;;;;5290364;28;20175;-73
2021/01/08 04:16:12;;;;;;;26.97;12.73;;;0.50;99.90;;;;;;5272009;28;20222;-73
2021/01/08 04:18:43;;;;;;;27.20;12.67;;;0.50;99.90;;;;;;5290035;28;20191;-74
2021/01/08 04:21:15;;;;;;;26.37;11.57;;;0.50;99.90;;;;;;5290077;28;20187;-73
2021/01/08 04:23:46;;;;;;;28.13;12.20;;;0.60;99.90;;;;;;5290134;28;20549;-73
2021/01/08 04:30:14;;;;;;;21.23;10.10;;;0.60;99.90;;;;;;5294090;28;20574;-73
2021/01/08 04:32:46;;;;;;;24.33;10.63;;;0.60;99.90;;;;;;5294166;28;20546;-75
2021/01/08 04:35:17;;;;;;;19.93;10.10;;;0.60;99.90;;;;;;5294083;28;20196;-75
2021/01/08 04:37:49;;;;;;;22.77;11.63;;;0.60;99.90;;;;;;5275797;28;20226;-74
2021/01/08 04:40:20;;;;;;;22.87;11.00;;;0.60;99.90;;;;;;5293874;28;20672;-73
2021/01/08 04:42:52;;;;;;;21.60;10.70;;;0.60;99.90;;;;;;5294057;28;20195;-73
2021/01/08 04:45:23;;;;;;;21.33;10.27;;;0.60;99.90;;;;;;5295262;28;20199;-75
2021/01/08 04:47:57;;;;;;;21.03;10.60;;;0.60;99.90;;;;;;5295698;28;20196;-75
2021/01/08 04:50:29;;;;;;;28.37;12.60;;;0.60;99.90;;;;;;5293663;28;20231;-72
2021/01/08 04:53:01;;;;;;;26.70;12.67;;;0.60;99.90;;;;;;5293809;28;20598;-72
2021/01/08 04:55:33;;;;;;;27.03;12.63;;;0.60;99.90;;;;;;5293441;28;20191;-73
2021/01/08 04:58:07;;;;;;;26.67;13.40;;;0.60;99.90;;;;;;5293709;28;20687;-74
2021/01/08 05:00:38;;;;;;;25.57;12.53;;;0.60;99.90;;;;;;5293556;28;20191;-74
2021/01/08 05:03:10;;;;;;;26.63;12.63;;;0.60;99.90;;;;;;5293324;28;20199;-72
2021/01/08 05:05:42;;;;;;;23.43;12.27;;;0.60;99.90;;;;;;5293429;28;20199;-73
2021/01/08 05:08:15;;;;;;;23.13;11.17;;;0.60;99.90;;;;;;5293406;28;20242;-74
2021/01/08 05:10:46;;;;;;;23.37;11.03;;;0.60;99.90;;;;;;5293460;28;20200;-76
2021/01/08 05:13:18;;;;;;;20.20;10.27;;;0.60;99.90;;;;;;5293561;28;20187;-76
2021/01/08 05:15:51;;;;;;;22.43;10.27;;;0.60;99.90;;;;;;5292527;28;20212;-75
2021/01/08 05:18:30;;;;;;;17.03;9.43;;;0.60;99.90;;;;;;5292935;28;20235;-74
2021/01/08 05:21:01;;;;;;;23.40;11.90;;;0.60;99.90;;;;;;5293752;28;20191;-76
2021/01/08 05:23:34;;;;;;;26.70;11.63;;;0.60;99.90;;;;;;5292799;28;20195;-76
2021/01/08 05:26:06;;;;;;;21.50;11.00;;;0.60;99.90;;;;;;5292997;28;20184;-75
2021/01/08 05:28:38;;;;;;;25.07;11.00;;;0.60;99.90;;;;;;5292592;28;20196;-74
2021/01/08 05:31:10;;;;;;;21.87;11.53;;;0.60;99.90;;;;;;5292982;28;20199;-74
2021/01/08 05:33:42;;;;;;;22.60;10.70;;;0.60;99.90;;;;;;5292888;28;20549;-73
2021/01/08 05:36:14;;;;;;;23.30;11.73;;;0.60;99.90;;;;;;5292549;28;20225;-75
2021/01/08 05:38:57;;;;;;;21.90;11.00;;;0.50;99.90;;;;;;5292570;28;20191;-75
2021/01/08 05:41:30;;;;;;;21.30;11.00;;;0.50;99.90;;;;;;5292907;28;20549;-74
2021/01/08 05:44:02;;;;;;;27.77;13.03;;;0.50;99.90;;;;;;5292420;28;20211;-74
2021/01/08 05:46:34;;;;;;;28.10;11.70;;;0.50;99.90;;;;;;5292891;28;20206;-73
2021/01/08 05:49:08;;;;;;;21.97;10.70;;;0.50;99.90;;;;;;5292242;28;20689;-76
2021/01/08 05:51:39;;;;;;;21.03;9.63;;;0.50;99.90;;;;;;5273580;28;20572;-71
2021/01/08 05:54:11;;;;;;;20.13;10.03;;;0.50;99.90;;;;;;5291671;28;20547;-71
2021/01/08 05:56:45;;;;;;;23.63;10.93;;;0.50;99.90;;;;;;5291080;28;20229;-72
2021/01/08 05:59:25;;;;;;;20.07;10.47;;;0.50;99.90;;;;;;5291173;28;20192;-73
2021/01/08 06:01:57;;;;;;;22.70;11.50;;;0.50;99.90;;;;;;5291364;28;20206;-70
2021/01/08 06:04:34;;;;;;;21.70;11.17;;;0.40;99.90;;;;;;5291199;28;20638;-72
2021/01/08 06:07:15;;;;;;;19.63;10.80;;;0.40;99.90;;;;;;5291098;28;20196;-75
2021/01/08 06:09:49;;;;;;;21.80;11.60;;;0.40;99.90;;;;;;5290748;28;20199;-73
2021/01/08 06:12:22;;;;;;;27.70;12.03;;;0.40;99.90;;;;;;5272053;28;20195;-74
2021/01/08 06:14:53;;;;;;;22.67;10.83;;;0.40;99.90;;;;;;5290845;28;20554;-73
2021/01/08 06:17:25;;;;;;;24.43;11.30;;;0.40;99.90;;;;;;5290732;28;20216;-72
2021/01/08 06:20:03;;;;;;;25.47;12.27;;;0.40;99.90;;;;;;5290492;28;20214;-73
2021/01/08 06:22:38;;;;;;;27.73;12.30;;;0.40;99.90;;;;;;5272816;28;20191;-73
2021/01/08 06:29:00;;;;;;;26.73;12.50;;;0.40;99.90;;;;;;5290468;28;20203;-71
2021/01/08 06:32:00;;;;;;;26.57;13.67;;;0.40;99.90;;;;;;5290636;28;20187;-74
2021/01/08 06:34:46;;;;;;;27.87;13.10;;;0.40;99.90;;;;;;5276946;28;20599;-74
2021/01/08 06:37:23;;;;;;;27.33;13.30;;;0.40;99.90;;;;;;5290513;28;20238;-74
2021/01/08 06:39:57;;;;;;;28.77;13.47;;;0.50;99.90;;;;;;5290129;28;20274;-74
2021/01/08 06:46:36;;;;;;;26.97;12.90;;;0.40;99.90;;;;;;5291594;28;20214;-73
2021/01/08 06:49:10;;;;;;;28.77;12.50;;;0.40;99.90;;;;;;5263472;28;747149;-74
2021/01/08 06:51:43;;;;;;;30.87;13.37;;;0.50;99.90;;;;;;5291841;28;20188;-74
2021/01/08 06:54:14;;;;;;;30.57;14.43;;;0.50;99.90;;;;;;5291293;28;20194;-73
2021/01/08 06:56:46;;;;;;;26.07;13.27;;;0.50;99.90;;;;;;5290897;28;20219;-75
2021/01/08 06:59:21;;;;;;;28.50;13.10;;;0.50;99.90;;;;;;5291221;28;20198;-73
2021/01/08 07:01:59;;;;;;;28.50;13.77;;;0.50;99.90;;;;;;5291017;28;20293;-76
2021/01/08 07:04:32;;;;;;;30.37;13.90;;;0.50;99.90;;;;;;5290946;28;20208;-74
2021/01/08 07:07:05;;;;;;;33.40;14.43;;;0.50;99.90;;;;;;5290494;28;20192;-76
2021/01/08 07:09:37;;;;;;;29.53;13.37;;;0.50;99.90;;;;;;5290853;28;20195;-73
2021/01/08 07:12:09;;;;;;;33.27;14.83;;;0.50;99.90;;;;;;5290744;28;20190;-73
2021/01/08 07:14:41;;;;;;;31.93;14.60;;;0.60;99.90;;;;;;5291007;28;20509;-72
2021/01/08 07:17:13;;;;;;;37.67;15.20;;;0.60;99.90;;;;;;5290239;28;20235;-74
2021/01/08 07:19:45;;;;;;;33.10;14.80;;;0.60;99.90;;;;;;5290802;28;20278;-73
2021/01/08 07:22:22;;;;;;;26.50;12.53;;;0.60;99.90;;;;;;5290754;28;20195;-72
2021/01/08 07:24:53;;;;;;;28.43;13.20;;;0.60;99.90;;;;;;5290324;28;20192;-73
2021/01/08 07:27:25;;;;;;;24.63;12.73;;;0.60;99.90;;;;;;5290645;28;20512;-78
2021/01/08 07:29:58;;;;;;;26.43;12.70;;;0.60;99.90;;;;;;5290510;28;20187;-74
2021/01/08 07:32:42;;;;;;;25.07;11.87;;;0.70;99.90;;;;;;5290508;28;20557;-72
2021/01/08 07:35:32;;;;;;;24.03;11.90;;;0.70;99.90;;;;;;5290626;28;20609;-73
2021/01/08 07:38:16;;;;;;;26.00;12.77;;;0.70;99.90;;;;;;5290498;28;20215;-73
2021/01/08 07:44:34;;;;;;;22.67;11.37;;;0.70;99.90;;;;;;5290229;28;20228;-73
2021/01/08 07:47:21;;;;;;;22.80;11.20;;;0.80;99.90;;;;;;5272309;28;20192;-74
2021/01/08 07:50:13;;;;;;;20.03;10.63;;;0.80;99.90;;;;;;5290084;28;20239;-73
2021/01/08 07:52:45;;;;;;;25.10;11.30;;;0.80;99.90;;;;;;5290490;28;20187;-75
2021/01/08 07:55:39;;;;;;;28.20;13.60;;;0.80;99.90;;;;;;5290061;28;20191;-73
2021/01/08 07:58:12;;;;;;;27.57;13.97;;;0.80;99.90;;;;;;5272028;28;20215;-72
2021/01/08 08:00:48;;;;;;;26.70;13.77;;;0.80;99.90;;;;;;5292641;28;20188;-73
2021/01/08 08:03:21;;;;;;;33.50;14.50;;;0.90;99.90;;;;;;5294238;28;20245;-73
2021/01/08 08:05:54;;;;;;;26.57;12.73;;;0.90;99.90;;;;;;5276322;28;20192;-73
2021/01/08 08:08:26;;;;;;;25.60;12.80;;;0.90;99.90;;;;;;5294096;28;20188;-73
2021/01/08 08:11:16;;;;;;;26.53;12.87;;;0.90;99.90;;;;;;5294945;28;20492;-75
2021/01/08 08:13:47;;;;;;;25.30;12.87;;;0.90;99.90;;;;;;5294711;28;20192;-75
2021/01/08 08:16:33;;;;;;;26.93;12.63;;;0.90;99.90;;;;;;5294097;28;20187;-73
2021/01/08 08:19:06;;;;;;;22.70;12.50;;;0.90;99.90;;;;;;5294838;28;20199;-74
2021/01/08 08:21:44;;;;;;;24.47;13.03;;;1.00;99.90;;;;;;5296136;28;20195;-72
2021/01/08 08:24:17;;;;;;;22.57;11.50;;;1.00;99.90;;;;;;5296366;28;20216;-73
2021/01/08 08:26:54;;;;;;;24.93;11.87;;;1.00;99.90;;;;;;5278870;28;20215;-73
2021/01/08 08:29:26;;;;;;;23.00;11.70;;;1.00;99.90;;;;;;5295237;28;20669;-73
2021/01/08 08:31:58;;;;;;;26.33;12.90;;;1.00;99.90;;;;;;5293949;28;20192;-72
2021/01/08 08:34:31;;;;;;;28.10;12.47;;;1.00;99.90;;;;;;5286292;28;20187;-72
2021/01/08 08:37:09;;;;;;;22.33;11.87;;;1.10;99.90;;;;;;5288503;28;20219;-74
2021/01/08 08:39:41;;;;;;;26.10;13.00;;;1.10;99.90;;;;;;5275703;28;20187;-74
2021/01/08 08:42:19;;;;;;;29.47;12.67;;;1.10;99.90;;;;;;5292341;28;20210;-72
2021/01/08 08:44:51;;;;;;;23.20;11.93;;;1.10;99.90;;;;;;5293759;28;20187;-73
2021/01/08 08:47:23;;;;;;;23.67;12.27;;;1.10;99.90;;;;;;5294157;28;20199;-75
2021/01/08 08:50:06;;;;;;;23.97;11.57;;;1.20;99.90;;;;;;5291540;28;20286;-75
2021/01/08 08:52:37;;;;;;;24.87;12.67;;;1.20;99.90;;;;;;5293427;28;20203;-72
2021/01/08 08:58:45;;;;;;;23.20;11.90;;;1.20;99.90;;;;;;5228790;28;20260;-74
2021/01/08 09:01:16;;;;;;;26.03;11.97;;;1.30;99.90;;;;;;5227976;28;20284;-76
2021/01/08 09:04:09;;;;;;;24.53;11.97;;;1.30;99.90;;;;;;5226916;28;20196;-73
2021/01/08 09:06:45;;;;;;;24.53;12.67;;;1.30;99.90;;;;;;5229045;28;20563;-73
2021/01/08 09:09:23;;;;;;;25.17;12.03;;;1.30;99.90;;;;;;5229530;28;20587;-74
2021/01/08 09:16:13;;;;;;;26.80;12.97;;;1.30;99.90;;;;;;5222583;28;20209;-75
2021/01/08 09:19:07;;;;;;;23.43;12.17;;;1.30;99.90;;;;;;5229908;28;20651;-74
2021/01/08 09:21:48;;;;;;;23.53;12.23;;;1.40;99.90;;;;;;5228661;28;20281;-75
2021/01/08 09:24:28;;;;;;;25.10;12.60;;;1.40;99.90;;;;;;5229138;28;20239;-73
2021/01/08 09:27:12;;;;;;;23.43;12.23;;;1.40;99.90;;;;;;5229076;28;20193;-76
2021/01/08 09:29:44;;;;;;;22.73;11.77;;;1.40;99.90;;;;;;5280836;28;20214;-75
2021/01/08 09:32:32;;;;;;;20.63;11.07;;;1.40;99.90;;;;;;5295023;28;20191;-74
2021/01/08 09:35:08;;;;;;;20.10;10.50;;;1.40;99.90;;;;;;5295436;28;20206;-77
2021/01/08 09:37:49;;;;;;;22.97;11.80;;;1.50;99.90;;;;;;5294646;28;20247;-74
2021/01/08 09:40:21;;;;;;;21.83;11.73;;;1.50;99.90;;;;;;5293078;28;20196;-73
2021/01/08 09:42:53;;;;;;;20.80;10.57;;;1.50;99.90;;;;;;5293793;28;20208;-73
2021/01/08 09:45:26;;;;;;;21.87;11.10;;;1.50;99.90;;;;;;5275087;28;20188;-74
2021/01/08 09:47:58;;;;;;;22.80;12.40;;;1.50;99.90;;;;;;5292594;28;20673;-74
2021/01/08 09:50:34;;;;;;;23.67;13.20;;;1.50;99.90;;;;;;5292331;28;20239;-74
2021/01/08 09:53:10;;;;;;;22.80;12.07;;;1.50;99.90;;;;;;5292263;28;20217;-73
2021/01/08 09:55:42;;;;;;;22.13;12.03;;;1.60;99.90;;;;;;5292137;28;20195;-73
2021/01/08 09:58:14;;;;;;;23.90;12.80;;;1.60;99.90;;;;;;5273559;28;20613;-72
2021/01/08 10:00:50;;;;;;;26.03;12.97;;;1.60;99.90;;;;;;5292437;28;20195;-72
2021/01/08 10:03:23;;;;;;;28.02;16.77;;;1.60;99.90;;;;;;5290109;28;20451;-77
2021/01/08 10:06:02;;;;;;;25.20;13.67;;;1.60;99.90;;;;;;5274170;28;20237;-76
2021/01/08 10:08:33;;;;;;;27.47;14.47;;;1.60;99.90;;;;;;5291889;28;20192;-70
2021/01/08 10:15:08;;;;;;;22.63;11.97;;;1.70;99.90;;;;;;5291492;28;20537;-77
2021/01/08 10:17:50;;;;;;;25.43;12.33;;;1.70;99.90;;;;;;5291540;28;20233;-74
2021/01/08 10:20:24;;;;;;;28.53;13.10;;;1.70;99.90;;;;;;5292055;28;20274;-73
2021/01/08 10:22:56;;;;;;;28.03;13.93;;;1.70;99.90;;;;;;5290764;28;20283;-75
2021/01/08 10:25:30;;;;;;;23.93;13.17;;;1.70;99.90;;;;;;5273774;28;20709;-74
2021/01/08 10:32:13;;;;;;;31.20;13.33;;;1.80;99.90;;;;;;5292996;28;20177;-74
2021/01/08 10:34:44;;;;;;;33.43;15.53;;;1.90;99.90;;;;;;5292419;28;20191;-75
2021/01/08 10:37:17;;;;;;;33.80;16.80;;;1.90;99.90;;;;;;5292991;28;20219;-78
2021/01/08 10:39:50;;;;;;;32.93;17.27;;;1.90;99.90;;;;;;5292670;28;20252;-75
2021/01/08 10:42:22;;;;;;;33.93;17.23;;;2.00;99.90;;;;;;5291553;28;20195;-72
2021/01/08 10:44:54;;;;;;;30.37;16.87;;;2.00;99.90;;;;;;5291309;28;20294;-75
2021/01/08 10:47:26;;;;;;;31.23;16.37;;;2.10;99.90;;;;;;5291868;28;20199;-73
2021/01/08 10:50:14;;;;;;;31.67;17.07;;;2.10;99.90;;;;;;5291758;28;20299;-74
2021/01/08 10:52:46;;;;;;;32.90;15.73;;;2.20;99.90;;;;;;5291254;28;20223;-74
2021/01/08 10:55:28;;;;;;;27.87;15.50;;;2.20;99.90;;;;;;5291879;28;20214;-76
2021/01/08 10:57:59;;;;;;;26.70;13.90;;;2.20;99.90;;;;;;5291977;28;20306;-80
2021/01/08 11:00:31;;;;;;;27.20;14.30;;;2.30;99.90;;;;;;5292364;28;20192;-73
2021/01/08 11:03:03;;;;;;;45.87;20.97;;;2.30;99.90;;;;;;5290969;28;20626;-73
2021/01/08 11:05:39;;;;;;;35.77;18.13;;;2.30;99.90;;;;;;5291613;28;20195;-74
2021/01/08 11:08:11;;;;;;;48.57;23.07;;;2.30;99.90;;;;;;5291818;28;20656;-74
2021/01/08 11:10:42;;;;;;;56.20;26.43;;;2.30;99.90;;;;;;5273435;28;20194;-74
2021/01/08 11:13:14;;;;;;;57.90;25.53;;;2.20;99.90;;;;;;5291078;28;20551;-75
2021/01/08 11:15:46;;;;;;;52.10;25.20;;;2.10;99.90;;;;;;5272821;28;20651;-71
2021/01/08 11:18:18;;;;;;;51.70;25.13;;;2.00;99.90;;;;;;5291227;28;20215;-73
2021/01/08 11:20:50;;;;;;;52.40;26.23;;;2.00;99.90;;;;;;5290669;28;20416;-71
2021/01/08 11:23:22;;;;;;;58.67;25.13;;;2.00;99.90;;;;;;5291470;28;20195;-74
2021/01/08 11:25:53;;;;;;;49.13;24.10;;;2.00;99.90;;;;;;5270914;28;20198;-75
2021/01/08 11:28:24;;;;;;;55.67;22.57;;;2.10;99.90;;;;;;5291072;28;20191;-72
2021/01/08 11:30:56;;;;;;;50.27;24.00;;;2.10;99.90;;;;;;5291228;28;20191;-74
2021/01/08 11:33:28;;;;;;;43.73;20.97;;;2.10;99.90;;;;;;5290459;28;20199;-76
2021/01/08 11:35:59;;;;;;;46.93;23.67;;;2.10;99.90;;;;;;5291033;28;20549;-74
2021/01/08 11:38:30;;;;;;;42.90;22.03;;;2.10;99.90;;;;;;5290967;28;20226;-73
2021/01/08 11:41:04;;;;;;;46.90;22.00;;;2.10;99.90;;;;;;5291271;28;20223;-75
2021/01/08 11:43:35;;;;;;;42.03;21.13;;;2.10;99.90;;;;;;5290240;28;20290;-75
2021/01/08 11:46:07;;;;;;;39.23;21.20;;;2.10;99.90;;;;;;5290870;28;20266;-76
2021/01/08 11:48:40;;;;;;;37.80;20.60;;;2.20;99.90;;;;;;5290842;28;20251;-74
2021/01/08 11:51:14;;;;;;;39.90;21.20;;;2.10;99.90;;;;;;5291051;28;20195;-72
2021/01/08 11:53:47;;;;;;;40.77;19.83;;;2.10;99.90;;;;;;5291049;28;20531;-73
2021/01/08 11:56:31;;;;;;;39.23;20.47;;;2.20;99.90;;;;;;5290992;28;20195;-75
2021/01/08 11:59:03;;;;;;;39.57;20.53;;;2.10;99.90;;;;;;5293485;28;20307;-78
2021/01/08 12:01:36;;;;;;;41.37;21.57;;;2.10;99.90;;;;;;5294006;28;20192;-81
2021/01/08 12:04:10;;;;;;;42.77;21.57;;;2.10;99.90;;;;;;5294733;28;20223;-78
2021/01/08 12:06:42;;;;;;;37.07;20.40;;;2.10;99.90;;;;;;5273556;28;20630;-77
2021/01/08 12:09:14;;;;;;;36.30;19.23;;;2.10;99.90;;;;;;5277518;28;20225;-79
2021/01/08 12:15:42;;;;;;;34.87;18.83;;;2.10;99.90;;;;;;5290336;28;20174;-79
2021/01/08 12:18:14;;;;;;;37.93;20.67;;;2.20;99.90;;;;;;5289987;28;20227;-72
2021/01/08 12:20:46;;;;;;;34.53;18.97;;;2.20;99.90;;;;;;5272112;28;20645;-76
2021/01/08 12:23:18;;;;;;;40.57;19.70;;;2.20;99.90;;;;;;5290210;28;20246;-74
2021/01/08 12:25:50;;;;;;;42.87;20.37;;;2.20;99.90;;;;;;5290107;28;20210;-74
2021/01/08 12:32:16;;;;;;;41.37;20.93;;;2.20;99.90;;;;;;5288916;28;20183;-75
2021/01/08 12:34:48;;;;;;;36.30;19.43;;;2.20;99.90;;;;;;5289639;28;20286;-74
2021/01/08 12:37:20;;;;;;;35.13;19.67;;;2.20;99.90;;;;;;5289794;28;20642;-75
2021/01/08 12:39:51;;;;;;;34.20;18.57;;;2.20;99.90;;;;;;5289656;28;20192;-75
2021/01/08 12:42:22;;;;;;;36.73;19.23;;;2.20;99.90;;;;;;5290078;28;20290;-73
2021/01/08 12:44:54;;;;;;;39.77;18.77;;;2.20;99.90;;;;;;5288353;28;20194;-74
2021/01/08 12:47:26;;;;;;;37.97;18.37;;;2.20;99.90;;;;;;5293533;28;20223;-74
2021/01/08 12:49:58;;;;;;;38.80;20.83;;;2.20;99.90;;;;;;5275072;28;20258;-73
2021/01/08 12:52:30;;;;;;;43.53;21.70;;;2.10;99.90;;;;;;5292162;28;20191;-72
2021/01/08 12:55:02;;;;;;;42.73;21.47;;;2.10;99.90;;;;;;5293160;28;20199;-74
2021/01/08 12:57:33;;;;;;;46.57;22.57;;;2.10;99.90;;;;;;5293340;28;20222;-73
2021/01/08 13:00:07;;;;;;;38.67;21.33;;;2.10;99.90;;;;;;5293740;28;20650;-74
2021/01/08 13:02:40;;;;;;;41.13;21.83;;;2.10;99.90;;;;;;5293953;28;20187;-73
2021/01/08 13:05:12;;;;;;;43.90;22.17;;;2.00;99.90;;;;;;5298482;28;20192;-73
2021/01/08 13:07:43;;;;;;;39.67;20.27;;;2.00;99.90;;;;;;5301722;28;20584;-73
2021/01/08 13:10:15;;;;;;;35.40;19.70;;;2.00;99.90;;;;;;5282384;28;20192;-75
2021/01/08 13:12:46;;;;;;;34.80;18.67;;;1.90;99.90;;;;;;5295592;28;20195;-74
2021/01/08 13:15:18;;;;;;;35.90;18.93;;;1.90;99.90;;;;;;5277328;28;20584;-77
2021/01/08 13:17:49;;;;;;;33.83;17.83;;;1.90;99.90;;;;;;5293876;28;20302;-74
2021/01/08 13:20:21;;;;;;;32.47;17.23;;;1.90;99.90;;;;;;5293030;28;20199;-78
2021/01/08 13:22:55;;;;;;;29.90;16.17;;;1.80;99.90;;;;;;5294170;28;20188;-75
2021/01/08 13:25:26;;;;;;;32.47;16.73;;;1.80;99.90;;;;;;5293447;28;20564;-74
2021/01/08 13:27:58;;;;;;;28.90;15.87;;;1.80;99.90;;;;;;5293371;28;20199;-70
2021/01/08 13:30:29;;;;;;;28.27;15.20;;;1.80;99.90;;;;;;5293222;28;20196;-74
2021/01/08 13:33:00;;;;;;;28.77;15.17;;;1.80;99.90;;;;;;5293039;28;20570;-72
2021/01/08 13:35:32;;;;;;;34.60;17.77;;;1.70;99.90;;;;;;5292560;28;20273;-75
2021/01/08 13:38:04;;;;;;;34.33;16.83;;;1.70;99.90;;;;;;5292387;28;20220;-75
2021/01/08 13:40:35;;;;;;;38.33;17.73;;;1.70;99.90;;;;;;5292984;28;20195;-75
2021/01/08 13:43:07;;;;;;;39.17;19.10;;;1.70;99.90;;;;;;5292250;28;20191;-74
2021/01/08 13:45:40;;;;;;;39.67;19.23;;;1.70;99.90;;;;;;5292460;28;20211;-74
2021/01/08 13:48:12;;;;;;;36.90;18.27;;;1.70;99.90;;;;;;5274848;28;20681;-75
2021/01/08 13:50:44;;;;;;;36.97;17.87;;;1.70;99.90;;;;;;5292202;28;20239;-75
2021/01/08 13:53:16;;;;;;;43.70;21.17;;;1.70;99.90;;;;;;5292681;28;20550;-74
2021/01/08 13:55:47;;;;;;;42.07;19.07;;;1.70;99.90;;;;;;5292365;28;20183;-72
2021/01/08 13:58:19;;;;;;;40.60;19.77;;;1.70;99.90;;;;;;5290930;28;20211;-74